Portada
METAR-TAF:

METAR-TAF

Aeropuertos :

Yap, Micronesia

Aeropuerto Internacional de Yap

latitud: 09-29N, longitud: 138-05E, altitud: 28 m

Observación

El informe se hizo hace 48 minutos, a las 08:51 UTC
Viento 4 kt con dirección variable
Temperatura 27°C
Humedad 89%
Presión 1009 hPa
Visibilidad: 19.3 km
Escasas nubes a una altura de 1700 ft
Cielo nuboso a una altura de 30000 ft

METAR: PTYA 200851Z VRB04KT 12SM FEW017 BKN300 27/25 A2980 RMK SLP093 8/101 T02730245 52003

Hora: 19:39 (09:39 UTC)

Pronóstico

El informe se hizo hace 4 horas y 8 minutos, a las 05:31 UTC
Pronóstico válido del 20 a las 06 UTC al 21 a las 06 UTC
Viento 11 kt del noreste
Visibilidad: 10 km
Escasas nubes a una altura de 1600 ft

TAF: PTYA 200531Z 2006/2106 05011KT P6SM FEW016

Observaciones y pronósticos meteorológicos de más de 4000 aeropuertos (mensajes METAR y TAF).

Los puntos amarillos y rojos representan las estaciones disponibles.

Ponga el ratón en el punto deseado para ver el nombre de la estación.

Haga clic para ver las observaciones y los pronósticos meteorológicos.

Para cambiar el mapa : haga clic en los botones verdes con una cruz de color negro para hacer un zoom, en el botón verde con un guión para alejar o en las flechas verdes para mapas adyacentes.


METAR-TAF: